createdAt,value
2023-05-14T00:01:55.069Z,13.17
2023-05-14T00:04:21.260Z,13.19
2023-05-14T00:06:47.469Z,13.18
2023-05-14T00:09:13.628Z,13.15
2023-05-14T00:11:39.835Z,13.15
2023-05-14T00:14:06.034Z,13.16
2023-05-14T00:16:32.284Z,13.11
2023-05-14T00:18:58.537Z,13.08
2023-05-14T00:21:24.736Z,13.01
2023-05-14T00:23:50.887Z,12.94
2023-05-14T00:26:17.059Z,12.91
2023-05-14T00:28:43.448Z,12.87
2023-05-14T00:31:09.648Z,12.92
2023-05-14T00:33:35.843Z,12.92
2023-05-14T00:36:02.006Z,12.92
2023-05-14T00:38:28.141Z,12.91
2023-05-14T00:40:54.286Z,12.96
2023-05-14T00:43:20.455Z,12.96
2023-05-14T00:45:46.602Z,12.99
2023-05-14T00:48:12.740Z,13.00
2023-05-14T00:50:38.912Z,13.02
2023-05-14T00:53:05.442Z,13.08
2023-05-14T00:55:32.069Z,13.12
2023-05-14T00:57:58.263Z,13.14
2023-05-14T01:00:24.589Z,13.20
2023-05-14T01:02:50.918Z,13.21
2023-05-14T01:05:17.181Z,13.25
2023-05-14T01:07:43.347Z,13.26
2023-05-14T01:10:09.568Z,13.26
2023-05-14T01:12:35.746Z,13.27
2023-05-14T01:15:01.881Z,13.27
2023-05-14T01:17:28.064Z,13.27
2023-05-14T01:19:54.276Z,13.25
2023-05-14T01:22:21.555Z,13.25
2023-05-14T01:24:47.762Z,13.25
2023-05-14T01:27:13.896Z,13.19
2023-05-14T01:29:40.083Z,13.20
2023-05-14T01:32:06.282Z,13.18
2023-05-14T01:34:32.638Z,13.13
2023-05-14T01:36:58.782Z,13.11
2023-05-14T01:39:24.891Z,13.06
2023-05-14T01:41:51.082Z,13.00
2023-05-14T01:44:17.220Z,12.95
2023-05-14T01:46:43.398Z,12.89
2023-05-14T01:49:09.555Z,12.84
2023-05-14T01:51:35.745Z,12.80
2023-05-14T01:54:01.959Z,12.82
2023-05-14T01:56:28.128Z,12.77
2023-05-14T01:58:54.291Z,12.80
2023-05-14T02:01:20.432Z,12.82
2023-05-14T02:03:46.653Z,12.81
2023-05-14T02:06:12.838Z,12.79
2023-05-14T02:08:38.995Z,12.79
2023-05-14T02:11:05.136Z,12.74
2023-05-14T02:13:31.314Z,12.69
2023-05-14T02:15:57.549Z,12.65
2023-05-14T02:18:23.695Z,12.61
2023-05-14T02:20:49.874Z,12.52
2023-05-14T02:23:16.014Z,12.43
2023-05-14T02:25:42.209Z,12.37
2023-05-14T02:28:08.363Z,12.23
2023-05-14T02:30:34.542Z,12.20
2023-05-14T02:33:00.826Z,12.15
2023-05-14T02:35:26.991Z,12.05
2023-05-14T02:37:54.868Z,11.97
2023-05-14T02:40:21.177Z,11.93
2023-05-14T02:42:47.427Z,11.86
2023-05-14T02:45:13.560Z,11.82
2023-05-14T02:47:39.738Z,11.77
2023-05-14T02:50:05.973Z,11.82
2023-05-14T02:52:32.178Z,11.86
2023-05-14T02:55:02.009Z,11.90
2023-05-14T02:57:28.140Z,11.92
2023-05-14T02:59:54.324Z,11.98
2023-05-14T03:02:21.034Z,12.01
2023-05-14T03:04:47.581Z,12.01
2023-05-14T03:07:13.736Z,11.99
2023-05-14T03:09:39.863Z,11.88
2023-05-14T03:12:06.039Z,11.79
2023-05-14T03:14:32.281Z,11.73
2023-05-14T03:16:58.494Z,11.67
2023-05-14T03:19:24.741Z,11.62
2023-05-14T03:21:50.885Z,11.57
2023-05-14T03:24:17.025Z,11.54
2023-05-14T03:26:43.201Z,11.52
2023-05-14T03:29:09.406Z,11.58
2023-05-14T03:31:35.560Z,11.53
2023-05-14T03:34:01.737Z,11.55
2023-05-14T03:36:27.894Z,11.53
2023-05-14T03:38:54.050Z,11.52
2023-05-14T03:41:20.169Z,11.53
2023-05-14T03:43:46.307Z,11.54
2023-05-14T03:46:12.495Z,11.55
2023-05-14T03:48:38.686Z,11.53
2023-05-14T03:51:04.882Z,11.52
2023-05-14T03:53:31.076Z,11.55
2023-05-14T03:55:57.207Z,11.55
2023-05-14T03:58:23.357Z,11.47
2023-05-14T04:00:49.541Z,11.42
2023-05-14T04:03:15.868Z,11.33
2023-05-14T04:05:42.236Z,11.29
2023-05-14T04:08:08.385Z,11.21
2023-05-14T04:10:34.568Z,11.15
2023-05-14T04:13:00.722Z,11.09
2023-05-14T04:15:26.910Z,11.01
2023-05-14T04:17:53.153Z,10.99
2023-05-14T04:20:19.391Z,10.99
2023-05-14T04:22:45.544Z,11.03
2023-05-14T04:25:11.705Z,11.05
2023-05-14T04:27:37.945Z,11.11
2023-05-14T04:30:04.053Z,11.18
2023-05-14T04:32:30.308Z,11.35
2023-05-14T04:34:56.540Z,11.46
2023-05-14T04:37:22.671Z,11.60
2023-05-14T04:39:48.881Z,11.73
2023-05-14T04:42:15.012Z,11.84
2023-05-14T04:44:41.162Z,11.95
2023-05-14T04:47:07.382Z,12.07
2023-05-14T04:49:33.541Z,12.21
2023-05-14T04:51:59.717Z,12.36
2023-05-14T04:54:25.908Z,12.45
2023-05-14T04:56:52.054Z,12.58
2023-05-14T04:59:18.227Z,12.68
2023-05-14T05:01:44.595Z,12.76
2023-05-14T05:04:11.075Z,12.83
2023-05-14T05:06:37.383Z,12.92
2023-05-14T05:09:03.528Z,12.98
2023-05-14T05:11:29.642Z,13.06
2023-05-14T05:13:55.832Z,13.09
2023-05-14T05:16:22.083Z,13.08
2023-05-14T05:18:48.317Z,13.17
2023-05-14T05:21:14.490Z,13.18
2023-05-14T05:23:40.665Z,13.20
2023-05-14T05:26:06.907Z,13.27
2023-05-14T05:28:33.066Z,13.32
2023-05-14T05:30:59.218Z,13.33
2023-05-14T05:33:25.436Z,13.27
2023-05-14T05:35:51.671Z,13.30
2023-05-14T05:38:17.846Z,13.21
2023-05-14T05:40:44.063Z,13.30
2023-05-14T05:43:10.331Z,13.31
2023-05-14T05:45:36.503Z,13.29
2023-05-14T05:48:02.772Z,13.38
2023-05-14T05:50:28.981Z,13.41
2023-05-14T05:52:55.207Z,13.51
2023-05-14T05:55:21.420Z,13.61
2023-05-14T05:57:47.640Z,13.69
2023-05-14T06:00:13.844Z,13.88
2023-05-14T06:02:40.122Z,13.92
2023-05-14T06:05:06.473Z,13.92
2023-05-14T06:07:32.650Z,14.01
2023-05-14T06:09:58.816Z,14.14
2023-05-14T06:12:25.003Z,14.21
2023-05-14T06:20:31.523Z,14.57
2023-05-14T06:22:57.661Z,14.71
2023-05-14T06:25:23.827Z,14.77
2023-05-14T06:27:50.528Z,14.90
2023-05-14T06:30:18.664Z,14.98
2023-05-14T06:32:44.975Z,15.03
2023-05-14T06:35:11.222Z,15.40
2023-05-14T06:37:37.389Z,15.52
2023-05-14T06:40:03.510Z,15.86
2023-05-14T06:42:29.697Z,16.05
2023-05-14T06:44:55.928Z,15.85
2023-05-14T06:47:22.179Z,15.66
2023-05-14T06:49:48.466Z,15.63
2023-05-14T06:52:14.722Z,15.74
2023-05-14T06:54:40.865Z,15.95
2023-05-14T06:57:07.104Z,16.26
2023-05-14T06:59:33.345Z,16.95
2023-05-14T07:01:59.684Z,17.47
2023-05-14T07:04:26.195Z,17.74
2023-05-14T07:06:52.453Z,18.07
2023-05-14T07:09:24.620Z,18.04
2023-05-14T07:14:41.057Z,17.81
2023-05-14T07:17:07.332Z,18.07
2023-05-14T07:19:34.511Z,18.21
2023-05-14T07:22:00.770Z,18.35
2023-05-14T07:24:26.981Z,18.30
2023-05-14T07:26:53.166Z,18.60
2023-05-14T07:29:19.376Z,18.69
2023-05-14T07:31:45.664Z,18.74
2023-05-14T07:34:11.996Z,18.82
2023-05-14T07:36:38.168Z,18.96
2023-05-14T07:39:04.609Z,18.95
2023-05-14T07:41:30.730Z,19.03
2023-05-14T07:43:56.917Z,18.88
2023-05-14T07:46:26.579Z,18.33
2023-05-14T07:48:54.565Z,18.63
2023-05-14T07:51:21.572Z,18.61
2023-05-14T07:53:47.773Z,18.74
2023-05-14T07:56:13.985Z,18.86
2023-05-14T07:58:40.186Z,18.81
2023-05-14T08:01:06.331Z,18.97
2023-05-14T08:06:16.237Z,18.32
2023-05-14T08:08:42.468Z,17.76
2023-05-14T08:11:08.701Z,17.27
2023-05-14T08:13:34.889Z,17.16
2023-05-14T08:16:01.075Z,18.05
2023-05-14T08:18:30.491Z,18.60
2023-05-14T08:20:57.126Z,19.54
2023-05-14T08:23:23.353Z,20.15
2023-05-14T08:25:49.599Z,20.37
2023-05-14T08:28:15.885Z,20.43
2023-05-14T08:30:42.057Z,20.63
2023-05-14T08:33:08.331Z,21.03
2023-05-14T08:35:34.563Z,21.40
2023-05-14T08:38:00.764Z,21.29
2023-05-14T08:40:27.155Z,20.07
2023-05-14T08:42:53.521Z,19.14
2023-05-14T08:45:19.667Z,19.01
2023-05-14T08:47:45.882Z,19.12
2023-05-14T08:50:12.028Z,19.67
2023-05-14T08:52:38.176Z,20.39
2023-05-14T08:55:04.318Z,21.08
2023-05-14T08:57:30.535Z,21.15
2023-05-14T08:59:56.767Z,21.47
2023-05-14T09:02:23.002Z,20.88
2023-05-14T09:04:49.263Z,20.18
2023-05-14T09:07:15.502Z,19.48
2023-05-14T09:09:41.738Z,19.07
2023-05-14T09:12:07.902Z,18.76
2023-05-14T09:14:34.376Z,18.48
2023-05-14T09:17:00.898Z,18.43
2023-05-14T09:19:27.233Z,18.44
2023-05-14T09:21:53.449Z,18.36
2023-05-14T09:24:19.667Z,18.52
2023-05-14T09:26:45.983Z,18.53
2023-05-14T09:29:12.151Z,18.62
2023-05-14T09:31:38.390Z,18.64
2023-05-14T09:34:04.594Z,18.65
2023-05-14T09:36:30.901Z,18.73
2023-05-14T09:38:57.064Z,18.71
2023-05-14T09:41:23.275Z,18.75
2023-05-14T09:43:49.460Z,18.71
2023-05-14T09:46:15.675Z,18.64
2023-05-14T09:48:42.120Z,18.44
2023-05-14T09:51:08.335Z,18.54
2023-05-14T09:53:34.506Z,18.45
2023-05-14T09:56:00.714Z,18.38
2023-05-14T09:58:26.953Z,18.50
2023-05-14T10:00:53.106Z,18.54
2023-05-14T10:03:20.083Z,18.61
2023-05-14T10:05:46.344Z,18.68
2023-05-14T10:08:12.552Z,18.81
2023-05-14T10:10:38.726Z,18.78
2023-05-14T10:13:05.033Z,19.01
2023-05-14T10:15:31.217Z,19.29
2023-05-14T10:17:57.534Z,19.55
2023-05-14T10:20:23.944Z,19.60
2023-05-14T10:22:50.370Z,20.34
2023-05-14T10:25:16.650Z,20.37
2023-05-14T10:30:33.273Z,20.35
2023-05-14T10:32:59.501Z,20.17
2023-05-14T10:35:25.704Z,19.94
2023-05-14T10:37:52.078Z,19.72
2023-05-14T10:40:18.229Z,19.55
2023-05-14T10:42:44.443Z,19.65
2023-05-14T10:45:10.838Z,19.62
2023-05-14T10:47:37.060Z,19.41
2023-05-14T10:50:03.251Z,19.43
2023-05-14T10:52:29.384Z,19.39
2023-05-14T10:54:55.635Z,19.55
2023-05-14T10:57:21.827Z,19.32
2023-05-14T10:59:49.659Z,19.37
2023-05-14T11:02:15.918Z,19.22
2023-05-14T11:04:42.335Z,19.30
2023-05-14T11:07:08.614Z,19.30
2023-05-14T11:09:34.776Z,19.33
2023-05-14T11:12:00.999Z,19.43
2023-05-14T11:14:27.203Z,19.50
2023-05-14T11:16:53.552Z,19.53
2023-05-14T11:19:19.745Z,19.62
2023-05-14T11:21:45.969Z,19.80
2023-05-14T11:24:12.191Z,19.92
2023-05-14T11:26:38.427Z,20.00
2023-05-14T11:29:04.589Z,19.89
2023-05-14T11:31:30.956Z,19.91
2023-05-14T11:33:57.157Z,19.91
2023-05-14T11:36:23.320Z,20.09
2023-05-14T11:38:49.537Z,20.18
2023-05-14T11:41:15.771Z,20.18
2023-05-14T11:43:42.000Z,20.01
2023-05-14T11:46:08.391Z,19.93
2023-05-14T11:48:34.637Z,20.00
2023-05-14T11:51:00.829Z,20.19
2023-05-14T11:53:26.988Z,20.27
2023-05-14T11:55:53.182Z,20.12
2023-05-14T11:58:19.444Z,20.10
2023-05-14T12:00:45.679Z,19.88
2023-05-14T12:03:12.221Z,19.93
2023-05-14T12:05:38.496Z,19.98
2023-05-14T12:08:04.681Z,20.16
2023-05-14T12:10:30.896Z,20.07
2023-05-14T12:12:57.116Z,19.82
2023-05-14T12:15:23.318Z,19.70
2023-05-14T12:17:49.549Z,19.44
2023-05-14T12:20:25.980Z,19.34
2023-05-14T12:22:52.253Z,19.25
2023-05-14T12:25:18.391Z,19.21
2023-05-14T12:27:44.638Z,19.19
2023-05-14T12:30:34.226Z,19.34
2023-05-14T12:32:57.142Z,19.49
2023-05-14T12:35:23.642Z,19.66
2023-05-14T12:37:50.414Z,19.67
2023-05-14T12:40:19.674Z,19.68
2023-05-14T12:42:45.901Z,19.39
2023-05-14T12:45:12.743Z,19.98
2023-05-14T12:47:38.929Z,20.63
2023-05-14T12:50:05.184Z,20.56
2023-05-14T12:55:00.418Z,20.37
2023-05-14T12:57:26.604Z,20.16
2023-05-14T12:59:52.772Z,20.11
2023-05-14T13:02:19.010Z,20.22
2023-05-14T13:04:45.175Z,20.20
2023-05-14T13:07:11.379Z,20.51
2023-05-14T13:09:37.537Z,20.70
2023-05-14T13:12:03.728Z,21.45
2023-05-14T13:14:29.964Z,22.09
2023-05-14T13:16:56.200Z,22.93
2023-05-14T13:19:22.381Z,23.75
2023-05-14T13:21:48.572Z,23.84
2023-05-14T13:24:14.741Z,22.81
2023-05-14T13:26:40.944Z,21.91
2023-05-14T13:29:07.067Z,21.23
2023-05-14T13:31:33.285Z,20.69
2023-05-14T13:33:59.499Z,20.36
2023-05-14T13:36:25.631Z,20.12
2023-05-14T13:38:51.833Z,19.95
2023-05-14T13:41:17.990Z,19.70
2023-05-14T13:43:44.134Z,19.75
2023-05-14T13:46:10.387Z,20.82
2023-05-14T13:48:36.588Z,20.72
2023-05-14T13:51:02.749Z,20.20
2023-05-14T13:53:28.922Z,20.59
2023-05-14T13:55:55.192Z,21.28
2023-05-14T13:58:21.448Z,21.78
2023-05-14T14:00:47.583Z,21.39
2023-05-14T14:03:13.773Z,21.48
2023-05-14T14:05:40.010Z,21.76
2023-05-14T14:08:22.156Z,22.67
2023-05-14T14:10:49.365Z,23.13
2023-05-14T14:13:15.674Z,23.08
2023-05-14T14:15:41.984Z,23.50
2023-05-14T14:18:08.190Z,23.41
2023-05-14T14:20:34.325Z,23.61
2023-05-14T14:23:00.523Z,23.55
2023-05-14T14:25:26.762Z,23.14
2023-05-14T14:27:52.955Z,23.13
2023-05-14T14:30:19.152Z,22.62
2023-05-14T14:32:45.474Z,22.41
2023-05-14T14:35:11.702Z,22.54
2023-05-14T14:37:37.886Z,23.03
2023-05-14T14:40:04.124Z,23.22
2023-05-14T14:42:30.273Z,23.42
2023-05-14T14:44:56.476Z,23.72
2023-05-14T14:47:22.655Z,23.86
2023-05-14T14:49:48.826Z,23.62
2023-05-14T14:52:15.050Z,23.32
2023-05-14T14:54:41.255Z,23.33
2023-05-14T14:57:07.434Z,23.12
2023-05-14T14:59:33.637Z,23.33
2023-05-14T15:01:59.822Z,23.53
2023-05-14T15:04:25.995Z,23.82
2023-05-14T15:06:52.180Z,23.85
2023-05-14T15:09:34.609Z,23.96
2023-05-14T15:12:00.754Z,23.56
2023-05-14T15:14:26.949Z,23.81
2023-05-14T15:16:53.124Z,24.22
2023-05-14T15:19:19.373Z,24.66
2023-05-14T15:21:45.620Z,24.71
2023-05-14T15:24:11.799Z,25.17
2023-05-14T15:26:37.931Z,25.34
2023-05-14T15:29:04.189Z,25.52
2023-05-14T15:31:30.440Z,25.04
2023-05-14T15:33:56.660Z,25.01
2023-05-14T15:36:22.849Z,25.69
2023-05-14T15:38:49.104Z,26.33
2023-05-14T15:41:15.239Z,26.06
2023-05-14T15:43:41.425Z,26.08
2023-05-14T15:46:07.742Z,25.85
2023-05-14T15:48:34.035Z,26.22
2023-05-14T15:51:00.281Z,26.68
2023-05-14T15:53:26.510Z,27.00
2023-05-14T15:55:52.699Z,26.73
2023-05-14T15:58:18.933Z,26.72
2023-05-14T16:00:45.114Z,26.54
2023-05-14T16:03:11.481Z,26.96
2023-05-14T16:05:37.650Z,26.80
2023-05-14T16:08:03.833Z,26.81
2023-05-14T16:10:30.060Z,27.09
2023-05-14T16:12:56.208Z,27.24
2023-05-14T16:15:22.406Z,27.16
2023-05-14T16:17:48.664Z,26.68
2023-05-14T16:20:14.882Z,26.52
2023-05-14T16:22:41.037Z,26.06
2023-05-14T16:25:07.191Z,25.32
2023-05-14T16:27:33.694Z,25.00
2023-05-14T16:29:59.870Z,24.67
2023-05-14T16:35:16.842Z,23.91
2023-05-14T16:37:42.997Z,23.76
2023-05-14T16:40:09.153Z,23.53
2023-05-14T16:42:35.300Z,23.36
2023-05-14T16:45:01.479Z,23.17
2023-05-14T16:47:27.687Z,23.33
2023-05-14T16:49:53.920Z,23.26
2023-05-14T16:52:20.056Z,22.94
2023-05-14T16:54:46.216Z,22.82
2023-05-14T16:57:12.484Z,22.37
2023-05-14T16:59:38.681Z,21.82
2023-05-14T17:02:04.824Z,21.54
2023-05-14T17:04:31.440Z,21.11
2023-05-14T17:06:57.648Z,20.85
2023-05-14T17:09:23.849Z,20.60
2023-05-14T17:11:50.034Z,20.44
2023-05-14T17:14:16.228Z,20.49
2023-05-14T17:16:42.543Z,20.30
2023-05-14T17:19:08.805Z,20.27
2023-05-14T17:21:35.117Z,20.27
2023-05-14T17:24:01.308Z,20.17
2023-05-14T17:26:27.464Z,20.08
2023-05-14T17:28:53.590Z,20.01
2023-05-14T17:31:19.818Z,19.91
2023-05-14T17:33:46.021Z,19.73
2023-05-14T17:36:12.170Z,19.77
2023-05-14T17:38:38.375Z,19.67
2023-05-14T17:41:04.709Z,19.61
2023-05-14T17:43:30.956Z,19.58
2023-05-14T17:45:58.625Z,19.56
2023-05-14T17:48:24.771Z,19.46
2023-05-14T17:50:50.923Z,19.43
2023-05-14T17:53:17.067Z,19.40
2023-05-14T17:55:43.237Z,19.37
2023-05-14T17:58:09.435Z,19.35
2023-05-14T18:00:35.683Z,19.26
2023-05-14T18:03:02.416Z,19.18
2023-05-14T18:05:28.759Z,19.16
2023-05-14T18:07:54.887Z,19.15
2023-05-14T18:10:21.010Z,19.08
2023-05-14T18:12:47.208Z,19.02
2023-05-14T18:17:53.661Z,18.88
2023-05-14T18:20:19.862Z,18.78
2023-05-14T18:22:46.115Z,18.74
2023-05-14T18:25:12.281Z,18.70
2023-05-14T18:27:45.001Z,18.63
2023-05-14T18:30:11.465Z,18.54
2023-05-14T18:32:37.677Z,18.42
2023-05-14T18:35:05.687Z,18.31
2023-05-14T18:37:33.985Z,18.26
2023-05-14T18:40:00.207Z,18.19
2023-05-14T18:42:26.409Z,18.13
2023-05-14T18:44:52.598Z,18.05
2023-05-14T18:47:18.788Z,18.06
2023-05-14T18:49:44.996Z,17.97
2023-05-14T18:52:12.088Z,17.96
2023-05-14T18:54:38.289Z,17.88
2023-05-14T18:57:04.609Z,17.84
2023-05-14T18:59:30.802Z,17.82
2023-05-14T19:01:57.014Z,17.82
2023-05-14T19:04:27.187Z,17.84
2023-05-14T19:06:53.381Z,17.94
2023-05-14T19:09:19.568Z,18.00
2023-05-14T19:11:45.782Z,17.96
2023-05-14T19:14:12.188Z,17.93
2023-05-14T19:16:38.341Z,17.88
2023-05-14T19:19:04.527Z,17.80
2023-05-14T19:21:30.798Z,17.71
2023-05-14T19:23:57.006Z,17.60
2023-05-14T19:26:24.775Z,17.44
2023-05-14T19:28:50.951Z,17.36
2023-05-14T19:31:17.145Z,17.23
2023-05-14T19:33:43.308Z,17.17
2023-05-14T19:36:09.489Z,17.19
2023-05-14T19:38:38.668Z,17.15
2023-05-14T19:41:07.227Z,17.11
2023-05-14T19:43:33.393Z,17.04
2023-05-14T19:46:01.589Z,16.93
2023-05-14T19:48:28.246Z,16.56
2023-05-14T19:50:54.423Z,15.85
2023-05-14T19:53:20.602Z,15.59
2023-05-14T19:55:46.810Z,15.19
2023-05-14T19:58:13.033Z,14.93
2023-05-14T20:00:39.266Z,14.66
2023-05-14T20:03:05.683Z,14.45
2023-05-14T20:05:32.234Z,14.36
2023-05-14T20:07:58.398Z,14.28
2023-05-14T20:10:24.826Z,14.23
2023-05-14T20:12:51.160Z,14.22
2023-05-14T20:15:17.396Z,14.14
2023-05-14T20:17:43.610Z,14.06
2023-05-14T20:20:09.782Z,13.98
2023-05-14T20:22:36.010Z,13.97
2023-05-14T20:25:02.226Z,13.94
2023-05-14T20:27:28.447Z,13.96
2023-05-14T20:29:54.685Z,14.10
2023-05-14T20:32:20.836Z,14.08
2023-05-14T20:34:47.052Z,14.14
2023-05-14T20:37:13.237Z,14.10
2023-05-14T20:39:39.476Z,14.09
2023-05-14T20:42:05.676Z,14.04
2023-05-14T20:44:31.882Z,14.02
2023-05-14T20:46:58.157Z,13.96
2023-05-14T20:49:24.339Z,13.95
2023-05-14T20:51:50.504Z,13.91
2023-05-14T20:54:16.670Z,13.97
2023-05-14T20:56:42.837Z,13.94
2023-05-14T20:59:09.001Z,13.96
2023-05-14T21:01:35.207Z,13.91
2023-05-14T21:04:01.684Z,13.86
2023-05-14T21:06:27.977Z,13.87
2023-05-14T21:08:54.195Z,13.83
2023-05-14T21:11:20.569Z,13.74
2023-05-14T21:13:46.893Z,13.70
2023-05-14T21:16:13.130Z,13.58
2023-05-14T21:18:39.342Z,13.58
2023-05-14T21:21:05.579Z,13.53
2023-05-14T21:23:31.776Z,13.50
2023-05-14T21:25:57.981Z,13.50
2023-05-14T21:28:24.326Z,13.53
2023-05-14T21:30:50.560Z,13.49
2023-05-14T21:33:16.777Z,13.49
2023-05-14T21:35:43.022Z,13.51
2023-05-14T21:38:09.284Z,13.48
2023-05-14T21:40:35.495Z,13.48
2023-05-14T21:43:01.806Z,13.45
2023-05-14T21:45:28.301Z,13.42
2023-05-14T21:47:54.877Z,13.39
2023-05-14T21:50:21.280Z,13.33
2023-05-14T21:52:47.441Z,13.28
2023-05-14T21:55:13.660Z,13.21
2023-05-14T21:57:39.862Z,13.18
2023-05-14T22:00:06.009Z,13.12
2023-05-14T22:02:32.275Z,13.07
2023-05-14T22:04:58.550Z,12.99
2023-05-14T22:07:24.712Z,12.95
2023-05-14T22:09:50.890Z,12.93
2023-05-14T22:12:17.088Z,12.83
2023-05-14T22:14:43.293Z,12.79
2023-05-14T22:17:09.503Z,12.76
2023-05-14T22:19:35.641Z,12.66
2023-05-14T22:22:01.807Z,12.64
2023-05-14T22:24:28.023Z,12.53
2023-05-14T22:26:54.253Z,12.50
2023-05-14T22:29:20.434Z,12.48
2023-05-14T22:31:46.585Z,12.45
2023-05-14T22:34:12.824Z,12.38
2023-05-14T22:36:39.006Z,12.39
2023-05-14T22:39:05.158Z,12.40
2023-05-14T22:41:31.331Z,12.39
2023-05-14T22:43:57.529Z,12.45
2023-05-14T22:46:23.803Z,12.44
2023-05-14T22:48:50.028Z,12.43
2023-05-14T22:51:16.195Z,12.39
2023-05-14T22:53:42.378Z,12.36
2023-05-14T22:56:08.540Z,12.38
2023-05-14T22:58:34.729Z,12.37
2023-05-14T23:01:00.938Z,12.39
2023-05-14T23:03:27.169Z,12.44
2023-05-14T23:05:53.361Z,12.47
2023-05-14T23:08:19.558Z,12.48
2023-05-14T23:10:45.727Z,12.45
2023-05-14T23:13:11.916Z,12.45
2023-05-14T23:15:38.156Z,12.39
2023-05-14T23:18:04.350Z,12.37
2023-05-14T23:20:30.687Z,12.36
2023-05-14T23:22:56.824Z,12.35
2023-05-14T23:25:23.192Z,12.27
2023-05-14T23:27:49.404Z,12.22
2023-05-14T23:30:15.626Z,12.19
2023-05-14T23:32:41.863Z,12.05
2023-05-14T23:35:08.077Z,11.97
2023-05-14T23:37:34.342Z,11.91
2023-05-14T23:40:00.606Z,11.93
2023-05-14T23:42:26.800Z,11.90
2023-05-14T23:44:53.004Z,11.85
2023-05-14T23:47:19.264Z,11.75
2023-05-14T23:49:45.455Z,11.74
2023-05-14T23:52:11.686Z,11.77
2023-05-14T23:54:37.895Z,11.76
2023-05-14T23:57:04.120Z,11.76
2023-05-14T23:59:30.258Z,11.81
